Time;durP1;ratioP1;P1;durP2;ratioP2;P2;SDS_P1;SDS_P2;PMS_P1;PMS_P2;Temp;Humidity;BMP_temperature;BMP_pressure;BME280_temperature;BME280_humidity;BME280_pressure;Samples;Min_cycle;Max_cycle;Signal;HPM_P1;HPM_P2
2021/01/06 00:01:32;;;;;;;38.17;24.57;;;;;;;1.46;88.57;100384.81;1796525;80;21256;-78
2021/01/06 00:04:37;;;;;;;29.05;15.68;;;;;;;1.39;88.82;100374.97;1796143;80;21835;-78
2021/01/06 00:07:44;;;;;;;84.67;73.47;;;;;;;1.36;89.07;100374.33;1794068;80;21185;-77
2021/01/06 00:10:51;;;;;;;30.43;17.27;;;;;;;1.38;89.30;100369.70;1794606;80;21723;-77
2021/01/06 00:13:56;;;;;;;41.18;32.17;;;;;;;1.42;89.37;100369.84;1795549;80;21827;-78
2021/01/06 00:17:01;;;;;;;34.90;21.50;;;;;;;1.46;89.31;100369.99;1796195;80;21292;-78
2021/01/06 00:20:07;;;;;;;44.05;32.00;;;;;;;1.50;89.28;100375.48;1795055;80;21284;-78
2021/01/06 00:23:13;;;;;;;31.33;22.00;;;;;;;1.53;89.20;100366.69;1793963;80;21292;-77
2021/01/06 00:26:19;;;;;;;33.85;16.07;;;;;;;1.56;89.06;100370.14;1794111;80;21296;-78
2021/01/06 00:29:26;;;;;;;27.02;18.17;;;;;;;1.52;88.92;100378.45;1795603;80;21823;-78
2021/01/06 00:32:32;;;;;;;27.98;18.27;;;;;;;1.47;88.99;100380.64;1795485;80;21581;-77
2021/01/06 00:35:38;;;;;;;25.75;14.95;;;;;;;1.43;89.18;100386.38;1798198;79;21501;-77
2021/01/06 00:38:45;;;;;;;37.17;21.60;;;;;;;1.39;89.34;100383.55;1802831;79;21291;-77
2021/01/06 00:41:51;;;;;;;35.55;22.62;;;;;;;1.36;89.51;100374.33;1803880;79;21831;-78
2021/01/06 00:44:56;;;;;;;26.80;15.03;;;;;;;1.35;89.73;100371.27;1802795;79;21184;-77
2021/01/06 00:48:06;;;;;;;31.77;17.62;;;;;;;1.34;89.89;100367.72;1802605;79;21838;-78
2021/01/06 00:51:10;;;;;;;32.20;20.50;;;;;;;1.35;90.09;100361.84;1801806;79;21363;-78
2021/01/06 00:54:16;;;;;;;43.92;29.95;;;;;;;1.38;90.16;100368.36;1802493;79;21275;-78
2021/01/06 00:57:21;;;;;;;53.83;40.58;;;;;;;1.41;90.19;100362.25;1802628;79;21716;-79
2021/01/06 01:00:28;;;;;;;51.75;38.85;;;;;;;1.46;90.20;100362.76;1802550;79;21311;-79
2021/01/06 01:03:35;;;;;;;33.85;18.87;;;;;;;1.53;90.12;100369.39;1804133;79;21295;-78
2021/01/06 01:06:41;;;;;;;39.53;23.73;;;;;;;1.59;89.96;100372.59;1803944;79;21256;-79
2021/01/06 01:09:45;;;;;;;30.65;17.02;;;;;;;1.61;89.79;100379.59;1802466;79;21848;-79
2021/01/06 01:12:51;;;;;;;47.70;34.30;;;;;;;1.64;89.66;100379.34;1802957;79;21141;-77
2021/01/06 01:16:04;;;;;;;41.30;30.17;;;;;;;1.63;89.54;100377.62;1802710;79;21291;-77
2021/01/06 01:19:11;;;;;;;33.63;22.32;;;;;;;1.65;89.50;100381.58;1801508;79;21311;-78
2021/01/06 01:22:17;;;;;;;40.90;24.37;;;;;;;1.63;89.47;100391.11;1801391;79;21300;-78
2021/01/06 01:25:27;;;;;;;24.63;14.93;;;;;;;1.61;89.49;100400.31;1801106;79;21280;-78
2021/01/06 01:28:34;;;;;;;25.10;14.43;;;;;;;1.58;89.61;100400.53;1803613;79;21624;-78
2021/01/06 01:31:42;;;;;;;26.68;11.97;;;;;;;1.55;89.79;100397.56;1803965;79;21280;-78
2021/01/06 01:34:48;;;;;;;33.08;14.70;;;;;;;1.56;89.96;100387.17;1802264;79;21313;-78
2021/01/06 01:37:54;;;;;;;27.55;16.45;;;;;;;1.56;90.10;100389.02;1801133;79;21551;-78
2021/01/06 01:41:12;;;;;;;29.60;14.43;;;;;;;1.54;90.21;100385.06;1802588;79;21296;-77
2021/01/06 01:44:20;;;;;;;45.58;31.90;;;;;;;1.52;90.34;100385.20;1802814;79;21331;-78
2021/01/06 01:47:25;;;;;;;72.10;53.38;;;;;;;1.55;90.56;100380.04;1801307;79;21331;-78
2021/01/06 01:50:31;;;;;;;32.48;20.57;;;;;;;1.62;90.63;100381.31;1801816;79;21870;-78
2021/01/06 01:53:47;;;;;;;47.13;32.48;;;;;;;1.65;90.56;100368.95;1802781;79;21291;-78
2021/01/06 01:57:03;;;;;;;30.92;17.70;;;;;;;1.64;90.50;100374.44;1801236;79;21185;-77
2021/01/06 02:00:17;;;;;;;32.70;17.50;;;;;;;1.60;90.56;100369.80;1802070;79;21152;-78
2021/01/06 02:03:38;;;;;;;45.52;23.32;;;;;;;1.55;90.65;100366.56;1803092;79;21291;-78
2021/01/06 02:06:51;;;;;;;36.05;19.00;;;;;;;1.51;90.83;100371.84;1802799;79;21173;-78
2021/01/06 02:10:23;;;;;;;34.40;17.92;;;;;;;1.50;91.04;100372.30;1802666;79;21835;-77
2021/01/06 02:13:50;;;;;;;35.83;19.82;;;;;;;1.53;91.18;100367.18;1802761;79;21334;-78
2021/01/06 02:17:20;;;;;;;43.98;22.48;;;;;;;1.56;91.26;100372.34;1786913;79;21454;-78
2021/01/06 02:20:31;;;;;;;43.35;18.10;;;;;;;1.56;91.26;100366.95;1802158;79;21315;-77
2021/01/06 02:23:37;;;;;;;41.25;18.57;;;;;;;1.54;91.34;100378.33;1802822;79;21326;-79
2021/01/06 02:26:43;;;;;;;44.03;21.17;;;;;;;1.51;91.47;100371.35;1802810;79;21177;-78
2021/01/06 02:29:48;;;;;;;46.92;18.82;;;;;;;1.49;91.67;100376.47;1802843;79;21775;-78
2021/01/06 02:32:53;;;;;;;40.12;22.50;;;;;;;1.50;91.85;100367.41;1801666;79;21322;-78
2021/01/06 02:35:59;;;;;;;39.85;22.05;;;;;;;1.50;92.04;100371.45;1802187;79;21189;-78
2021/01/06 02:39:06;;;;;;;38.15;18.05;;;;;;;1.52;92.15;100372.20;1801192;79;21295;-78
2021/01/06 02:42:10;;;;;;;44.83;20.82;;;;;;;1.54;92.26;100368.41;1803802;79;21263;-78
2021/01/06 02:45:20;;;;;;;61.68;25.60;;;;;;;1.59;92.35;100373.44;1803118;79;21180;-79
2021/01/06 02:48:25;;;;;;;60.23;25.23;;;;;;;1.63;92.43;100367.33;1803200;79;21871;-78
2021/01/06 02:51:35;;;;;;;66.22;24.20;;;;;;;1.67;92.50;100375.07;1803699;79;21161;-78
2021/01/06 02:54:44;;;;;;;57.55;24.15;;;;;;;1.71;92.52;100375.21;1803521;79;21494;-79
2021/01/06 02:57:49;;;;;;;63.20;30.77;;;;;;;1.77;92.51;100369.83;1803413;79;21839;-78
2021/01/06 03:00:58;;;;;;;60.95;27.93;;;;;;;1.79;92.46;100371.44;1801310;79;21300;-78
2021/01/06 03:04:04;;;;;;;59.03;29.82;;;;;;;1.77;92.36;100363.94;1802659;79;21284;-78
2021/01/06 03:07:11;;;;;;;54.63;24.82;;;;;;;1.77;92.28;100363.08;1801337;79;21212;-78
2021/01/06 03:10:18;;;;;;;62.43;26.82;;;;;;;1.77;92.27;100363.94;1802725;79;21177;-78
2021/01/06 03:13:24;;;;;;;61.55;24.77;;;;;;;1.80;92.22;100372.30;1803926;79;21283;-78
2021/01/06 03:16:30;;;;;;;59.65;25.72;;;;;;;1.83;92.18;100374.73;1803957;79;21244;-78
2021/01/06 03:19:36;;;;;;;51.13;23.47;;;;;;;1.88;92.16;100374.38;1803229;79;21343;-78
2021/01/06 03:22:41;;;;;;;43.13;19.62;;;;;;;1.94;92.10;100377.48;1801251;79;21940;-77
2021/01/06 03:25:47;;;;;;;45.17;19.10;;;;;;;2.03;92.07;100376.76;1802830;79;21300;-78
2021/01/06 03:28:54;;;;;;;55.67;23.77;;;;;;;2.10;91.84;100385.22;1802710;79;21192;-78
2021/01/06 03:32:01;;;;;;;49.77;21.33;;;;;;;2.15;91.68;100391.11;1801245;79;21827;-78
2021/01/06 03:35:20;;;;;;;51.13;20.30;;;;;;;2.21;91.53;100391.11;1802243;79;21322;-78
2021/01/06 03:38:44;;;;;;;51.27;22.10;;;;;;;2.23;91.29;100381.08;1791944;79;21814;-77
2021/01/06 03:41:51;;;;;;;54.40;21.33;;;;;;;2.23;91.29;100381.08;1764587;81;22528;-77
2021/01/06 03:44:57;;;;;;;46.18;19.50;;;;;;;2.23;91.04;100381.94;1766890;81;21303;-77
2021/01/06 03:48:29;;;;;;;45.23;18.95;;;;;;;2.21;91.03;100389.30;1766796;81;21303;-78
2021/01/06 03:51:43;;;;;;;44.70;20.02;;;;;;;2.20;91.06;100395.66;1767659;81;21213;-78
2021/01/06 03:55:05;;;;;;;47.35;19.60;;;;;;;2.16;91.17;100398.22;1768213;81;21177;-78
2021/01/06 03:58:11;;;;;;;55.52;20.10;;;;;;;2.10;91.37;100397.36;1768278;81;21304;-77
2021/01/06 04:01:45;;;;;;;42.62;18.75;;;;;;;2.06;91.66;100409.38;1768291;81;21193;-77
2021/01/06 04:05:12;;;;;;;46.02;18.12;;;;;;;2.08;91.93;100417.37;1768854;81;21189;-77
2021/01/06 04:08:18;;;;;;;36.33;17.05;;;;;;;2.05;92.18;100410.36;1768272;81;21332;-77
2021/01/06 04:11:26;;;;;;;36.83;16.17;;;;;;;2.07;92.44;100411.58;1768249;81;21228;-77
2021/01/06 04:14:33;;;;;;;35.10;15.18;;;;;;;2.08;92.60;100420.92;1767295;81;21838;-78
2021/01/06 04:17:40;;;;;;;31.95;14.78;;;;;;;2.11;92.73;100417.11;1768174;81;21299;-78
2021/01/06 04:20:48;;;;;;;37.58;13.98;;;;;;;2.10;92.78;100421.65;1768104;81;21298;-78
2021/01/06 04:23:53;;;;;;;40.60;15.13;;;;;;;2.09;92.96;100420.43;1767595;81;21170;-77
2021/01/06 04:26:59;;;;;;;38.10;16.07;;;;;;;2.10;93.22;100419.45;1768274;81;21292;-77
2021/01/06 04:30:05;;;;;;;37.55;16.93;;;;;;;2.09;93.44;100420.43;1768229;81;21299;-78
2021/01/06 04:33:13;;;;;;;28.92;14.98;;;;;;;2.08;93.64;100424.11;1762761;80;21336;-78
2021/01/06 04:36:29;;;;;;;30.12;11.22;;;;;;;2.08;93.85;100427.67;1766848;81;22495;-78
2021/01/06 04:39:34;;;;;;;33.55;13.90;;;;;;;2.11;94.05;100431.95;1769462;79;21362;-78
2021/01/06 04:42:40;;;;;;;38.08;13.85;;;;;;;2.12;94.19;100437.25;1768206;81;21335;-77
2021/01/06 04:45:49;;;;;;;32.35;14.70;;;;;;;2.13;94.25;100433.56;1768311;81;21748;-78
2021/01/06 04:49:11;;;;;;;35.45;16.57;;;;;;;2.12;94.26;100438.59;1769124;81;21263;-78
2021/01/06 04:52:51;;;;;;;25.62;13.35;;;;;;;2.14;94.37;100435.28;1769015;81;21689;-77
2021/01/06 04:56:23;;;;;;;42.58;17.00;;;;;;;2.15;94.41;100430.24;1766628;81;21292;-77
2021/01/06 05:00:05;;;;;;;34.38;16.73;;;;;;;2.15;94.51;100436.99;1768184;81;21720;-78
2021/01/06 05:03:41;;;;;;;29.95;14.47;;;;;;;2.16;94.73;100430.61;1768197;81;21284;-78
2021/01/06 05:07:09;;;;;;;38.67;15.95;;;;;;;2.18;94.94;100431.36;1769208;81;21684;-78
2021/01/06 05:10:39;;;;;;;42.78;18.55;;;;;;;2.15;95.10;100440.18;1769147;81;21149;-77
2021/01/06 05:14:03;;;;;;;36.05;16.20;;;;;;;2.13;95.32;100445.70;1768117;81;21225;-78
2021/01/06 05:17:08;;;;;;;46.63;17.42;;;;;;;2.11;95.54;100446.80;1768332;81;22549;-78
2021/01/06 05:20:15;;;;;;;47.38;17.75;;;;;;;2.12;95.84;100445.34;1767974;81;21763;-78
2021/01/06 05:23:27;;;;;;;41.98;18.05;;;;;;;2.13;96.10;100451.11;1767590;81;21327;-78
2021/01/06 05:26:34;;;;;;;53.90;17.95;;;;;;;2.18;96.29;100451.61;1768116;81;21307;-78
2021/01/06 05:29:40;;;;;;;46.37;18.45;;;;;;;2.25;96.50;100447.92;1766742;81;21822;-78
2021/01/06 05:32:47;;;;;;;55.90;20.50;;;;;;;2.28;96.60;100449.91;1768256;81;21299;-77
2021/01/06 05:35:54;;;;;;;47.78;18.57;;;;;;;2.32;96.68;100455.08;1767937;81;21315;-77
2021/01/06 05:39:02;;;;;;;52.10;19.05;;;;;;;2.34;96.79;100457.15;1767405;81;21330;-77
2021/01/06 05:42:25;;;;;;;64.22;21.77;;;;;;;2.36;96.85;100457.41;1801156;79;22860;-77
2021/01/06 05:45:32;;;;;;;51.37;18.67;;;;;;;2.40;96.94;100456.66;1803855;79;21276;-78
2021/01/06 05:48:49;;;;;;;55.25;20.65;;;;;;;2.47;97.07;100470.06;1803004;79;21295;-77
2021/01/06 05:52:07;;;;;;;53.45;19.60;;;;;;;2.52;97.14;100468.71;1784152;79;21188;-77
2021/01/06 05:55:16;;;;;;;44.13;18.35;;;;;;;2.58;97.21;100470.06;1801271;79;21252;-78
2021/01/06 05:58:42;;;;;;;45.85;18.80;;;;;;;2.58;97.18;100466.02;1785728;79;21288;-78
2021/01/06 06:02:12;;;;;;;46.37;17.52;;;;;;;2.53;97.12;100479.02;1802886;79;22523;-78
2021/01/06 06:05:47;;;;;;;38.78;17.48;;;;;;;2.47;97.25;100476.31;1764477;79;21275;-78
2021/01/06 06:09:46;;;;;;;41.15;16.82;;;;;;;2.49;97.50;100485.64;1771702;79;21200;-77
2021/01/06 06:13:12;;;;;;;42.03;18.48;;;;;;;2.47;97.76;100482.21;1748114;80;21325;-77
2021/01/06 06:16:43;;;;;;;46.45;18.87;;;;;;;2.48;98.04;100490.19;1779620;79;21169;-77
2021/01/06 06:20:04;;;;;;;36.70;16.55;;;;;;;2.49;98.26;100485.17;1774759;79;21889;-77
2021/01/06 06:24:01;;;;;;;41.00;18.05;;;;;;;2.55;98.54;100492.78;1756197;79;21232;-77
2021/01/06 06:27:20;;;;;;;34.25;15.58;;;;;;;2.63;98.75;100488.11;1779865;79;21287;-78
2021/01/06 06:30:44;;;;;;;40.73;16.73;;;;;;;2.70;98.97;100496.61;1785407;79;21276;-78
2021/01/06 06:33:49;;;;;;;45.48;18.37;;;;;;;2.73;99.11;100490.94;1781789;79;21694;-77
2021/01/06 06:36:56;;;;;;;42.62;18.42;;;;;;;2.77;99.23;100498.68;1788753;79;21295;-77
2021/01/06 06:40:10;;;;;;;34.95;17.35;;;;;;;2.78;99.31;100503.12;1786051;79;21971;-77
2021/01/06 06:43:16;;;;;;;40.70;17.75;;;;;;;2.78;99.37;100505.83;1790987;79;21399;-76
2021/01/06 06:46:39;;;;;;;41.42;19.80;;;;;;;2.75;99.38;100497.10;1727276;79;21288;-76
2021/01/06 06:50:19;;;;;;;45.35;20.75;;;;;;;2.73;99.41;100503.09;1742315;79;21796;-77
2021/01/06 06:54:14;;;;;;;46.25;18.32;;;;;;;2.73;99.50;100501.28;1792522;79;21549;-76
2021/01/06 06:57:35;;;;;;;44.35;20.27;;;;;;;2.73;99.55;100501.28;1647392;86;21327;-78
2021/01/06 07:00:42;;;;;;;40.67;16.52;;;;;;;2.78;99.73;100500.42;1709661;83;21193;-77
2021/01/06 07:03:59;;;;;;;42.62;19.48;;;;;;;2.79;99.81;100499.44;1778959;79;21280;-76
2021/01/06 07:07:08;;;;;;;30.70;15.15;;;;;;;2.80;99.84;100499.80;1791388;79;21267;-77
2021/01/06 07:10:30;;;;;;;40.78;18.82;;;;;;;2.81;99.88;100494.76;1796561;79;22353;-77
2021/01/06 07:13:34;;;;;;;55.83;20.55;;;;;;;2.84;99.92;100507.67;1785128;79;21280;-78
2021/01/06 07:16:59;;;;;;;47.27;20.37;;;;;;;2.83;99.94;100503.26;1787134;79;21287;-76
2021/01/06 07:20:09;;;;;;;59.03;20.05;;;;;;;2.83;99.94;100506.81;1797480;79;21704;-78
2021/01/06 07:23:28;;;;;;;40.48;18.10;;;;;;;2.87;100.00;100508.76;1785013;79;21252;-78
2021/01/06 07:26:56;;;;;;;36.60;16.53;;;;;;;2.92;100.00;100513.33;1785967;79;21290;-78
2021/01/06 07:30:02;;;;;;;38.20;16.50;;;;;;;2.99;100.00;100523.51;1792469;79;21862;-78
2021/01/06 07:33:10;;;;;;;39.20;18.73;;;;;;;3.00;100.00;100523.02;1786641;79;21741;-78
2021/01/06 07:36:24;;;;;;;32.95;17.40;;;;;;;2.94;100.00;100524.38;1777605;79;21315;-78
2021/01/06 07:39:37;;;;;;;43.30;18.75;;;;;;;2.92;100.00;100528.19;1786431;79;21275;-77
2021/01/06 07:42:46;;;;;;;39.25;18.45;;;;;;;2.90;100.00;100531.48;1752236;81;21875;-78
2021/01/06 07:46:09;;;;;;;39.73;16.95;;;;;;;2.92;100.00;100532.25;1726536;81;21303;-78
2021/01/06 07:49:40;;;;;;;30.55;14.35;;;;;;;2.96;100.00;100532.34;1738436;81;21296;-79
2021/01/06 07:53:02;;;;;;;36.35;15.80;;;;;;;3.03;100.00;100531.74;1724834;82;21865;-77
2021/01/06 07:56:12;;;;;;;42.33;20.68;;;;;;;3.10;100.00;100533.45;1723414;82;21561;-78
2021/01/06 07:59:31;;;;;;;37.45;17.57;;;;;;;3.18;100.00;100527.44;1731374;81;21903;-78
2021/01/06 08:03:05;;;;;;;39.55;19.57;;;;;;;3.24;100.00;100525.09;1731242;82;21869;-78
2021/01/06 08:05:49;;;;;;;44.15;17.67;;;;;;;3.33;100.00;100527.05;1729010;82;21821;-78
2021/01/06 08:08:57;;;;;;;37.38;17.90;;;;;;;3.40;100.00;100535.54;1726485;82;21334;-79
2021/01/06 08:12:03;;;;;;;33.40;17.73;;;;;;;3.45;100.00;100531.97;1734965;81;21300;-79
2021/01/06 08:15:31;;;;;;;40.55;19.23;;;;;;;3.54;100.00;100533.06;1750231;80;21895;-78
2021/01/06 08:19:10;;;;;;;48.20;21.25;;;;;;;3.62;100.00;100532.41;1738908;81;21440;-80
2021/01/06 08:22:35;;;;;;;39.08;19.90;;;;;;;3.70;100.00;100530.80;1729466;82;21587;-79
2021/01/06 08:25:41;;;;;;;38.00;18.50;;;;;;;3.76;100.00;100530.28;1736507;81;21327;-78
2021/01/06 08:28:47;;;;;;;57.62;20.15;;;;;;;3.76;100.00;100539.75;1721264;82;21311;-77
2021/01/06 08:31:56;;;;;;;42.23;20.30;;;;;;;3.76;100.00;100538.89;1751133;80;21276;-78
2021/01/06 08:35:07;;;;;;;41.40;19.15;;;;;;;3.78;100.00;100535.09;1757755;81;21299;-77
2021/01/06 08:38:31;;;;;;;38.48;17.15;;;;;;;3.84;100.00;100543.19;1731288;82;21812;-77
2021/01/06 08:41:38;;;;;;;39.73;18.70;;;;;;;3.87;100.00;100540.73;1725422;82;21236;-77
2021/01/06 08:44:55;;;;;;;46.25;21.85;;;;;;;3.92;100.00;100543.41;1756638;80;21632;-77
2021/01/06 08:48:01;;;;;;;40.23;19.32;;;;;;;4.00;100.00;100538.69;1758532;80;21209;-77
2021/01/06 08:51:18;;;;;;;48.63;23.15;;;;;;;4.08;100.00;100541.63;1732641;81;21280;-77
2021/01/06 08:54:38;;;;;;;44.25;21.30;;;;;;;4.15;100.00;100533.36;1746718;81;21382;-78
2021/01/06 08:57:46;;;;;;;44.08;22.30;;;;;;;4.28;100.00;100537.22;1737750;82;21173;-77
2021/01/06 09:01:05;;;;;;;42.88;21.00;;;;;;;4.41;100.00;100544.67;1751802;80;21328;-76
2021/01/06 09:04:50;;;;;;;45.15;20.92;;;;;;;4.54;100.00;100529.59;1730735;82;21308;-78
2021/01/06 09:07:57;;;;;;;46.85;21.97;;;;;;;4.61;100.00;100526.70;1744284;81;21209;-77
2021/01/06 09:11:29;;;;;;;51.42;23.50;;;;;;;4.63;100.00;100521.17;1704890;81;21830;-76
2021/01/06 09:14:47;;;;;;;44.15;22.52;;;;;;;4.64;100.00;100526.44;1739245;81;21300;-77
2021/01/06 09:17:59;;;;;;;59.67;24.92;;;;;;;4.70;100.00;100529.97;1715628;81;21313;-77
2021/01/06 09:21:25;;;;;;;44.35;20.37;;;;;;;4.77;100.00;100531.16;1740483;81;21829;-77
2021/01/06 09:24:41;;;;;;;47.73;23.92;;;;;;;4.82;100.00;100530.27;1745842;81;22536;-77
2021/01/06 09:27:51;;;;;;;47.27;19.62;;;;;;;4.85;99.89;100531.86;1736226;81;21197;-77
2021/01/06 09:30:56;;;;;;;39.48;20.30;;;;;;;4.91;99.84;100535.87;1744928;81;21295;-77
2021/01/06 09:34:03;;;;;;;44.55;20.15;;;;;;;4.97;99.82;100538.90;1731294;82;21307;-77
2021/01/06 09:37:09;;;;;;;38.80;18.90;;;;;;;5.01;99.67;100533.58;1738794;81;21780;-77
2021/01/06 09:40:25;;;;;;;30.68;16.02;;;;;;;5.03;99.54;100536.99;1742603;81;21265;-78
2021/01/06 09:43:53;;;;;;;40.50;19.10;;;;;;;5.07;99.41;100533.52;1739755;81;21251;-77
2021/01/06 09:47:19;;;;;;;34.53;17.32;;;;;;;5.12;99.35;100523.12;1740920;81;21271;-77
2021/01/06 09:50:49;;;;;;;27.48;15.83;;;;;;;5.19;99.34;100531.09;1740653;81;21224;-77
2021/01/06 09:53:57;;;;;;;29.70;15.28;;;;;;;5.26;99.29;100530.03;1732837;81;21287;-77
2021/01/06 09:57:03;;;;;;;31.10;16.05;;;;;;;5.31;99.26;100528.63;1734489;82;21943;-77
2021/01/06 10:00:38;;;;;;;34.05;17.75;;;;;;;5.45;99.32;100524.67;1747269;81;21749;-77
2021/01/06 10:03:47;;;;;;;33.18;18.82;;;;;;;5.56;99.25;100525.08;1723851;82;22021;-78
2021/01/06 10:07:25;;;;;;;35.25;16.55;;;;;;;5.67;99.05;100523.60;1720009;82;21225;-78
2021/01/06 10:10:37;;;;;;;28.05;14.93;;;;;;;5.72;98.65;100528.61;1711824;82;21197;-78
2021/01/06 10:14:09;;;;;;;31.93;15.90;;;;;;;5.72;98.16;100518.61;1719131;82;21316;-77
2021/01/06 10:17:25;;;;;;;33.95;17.20;;;;;;;5.80;97.96;100516.56;1721679;82;22179;-77
2021/01/06 10:21:27;;;;;;;40.05;21.65;;;;;;;5.86;97.73;100523.62;1786552;79;21245;-76
2021/01/06 10:25:19;;;;;;;35.92;17.10;;;;;;;5.96;97.52;100523.67;1781220;79;21583;-78
2021/01/06 10:28:37;;;;;;;31.80;17.23;;;;;;;6.02;97.16;100520.88;1748147;81;21319;-77
2021/01/06 10:31:41;;;;;;;35.95;17.65;;;;;;;5.99;96.69;100523.40;1783234;79;21296;-76
2021/01/06 10:34:50;;;;;;;35.05;16.17;;;;;;;5.99;96.40;100523.40;1758863;79;21589;-77
2021/01/06 10:37:56;;;;;;;32.42;18.02;;;;;;;5.97;96.16;100517.73;1752709;81;21268;-77
2021/01/06 10:41:27;;;;;;;33.20;18.05;;;;;;;5.94;95.95;100515.33;1804818;79;21584;-76
2021/01/06 10:44:38;;;;;;;34.90;17.85;;;;;;;5.89;95.81;100514.36;1764980;81;21327;-77
2021/01/06 10:47:53;;;;;;;31.20;17.55;;;;;;;5.85;95.91;100512.42;1768029;81;21165;-76
2021/01/06 10:50:59;;;;;;;28.25;14.98;;;;;;;5.90;96.13;100515.56;1769212;81;21166;-76
2021/01/06 10:54:04;;;;;;;30.75;15.93;;;;;;;5.97;96.26;100509.59;1769851;81;21271;-77
2021/01/06 10:57:08;;;;;;;38.10;17.05;;;;;;;5.97;96.09;100515.02;1715416;81;21272;-77
2021/01/06 11:00:34;;;;;;;38.65;19.52;;;;;;;6.00;96.13;100507.96;1769048;81;21336;-77
2021/01/06 11:04:35;;;;;;;33.70;18.45;;;;;;;6.03;96.12;100515.84;1769556;81;21296;-77
2021/01/06 11:07:58;;;;;;;32.88;17.00;;;;;;;6.07;96.09;100511.81;1769447;81;21724;-77
2021/01/06 11:11:18;;;;;;;33.30;18.57;;;;;;;6.10;96.05;100511.53;1768447;81;21359;-76
2021/01/06 11:14:31;;;;;;;32.47;18.93;;;;;;;6.10;96.07;100511.03;1767448;81;21346;-77
2021/01/06 11:17:45;;;;;;;36.53;20.77;;;;;;;6.16;96.19;100515.03;1766751;81;21201;-77
2021/01/06 11:20:54;;;;;;;29.35;15.80;;;;;;;6.24;96.26;100512.97;1769971;81;21872;-77
2021/01/06 11:24:06;;;;;;;37.23;19.52;;;;;;;6.33;96.31;100508.88;1770179;81;21260;-77
2021/01/06 11:27:11;;;;;;;36.73;19.62;;;;;;;6.43;96.31;100509.38;1769087;81;21193;-76
2021/01/06 11:30:30;;;;;;;37.63;19.82;;;;;;;6.55;96.31;100517.74;1770371;81;21204;-76
2021/01/06 11:33:36;;;;;;;26.55;15.83;;;;;;;6.70;96.32;100520.86;1770548;81;22151;-76
2021/01/06 11:37:00;;;;;;;27.48;16.73;;;;;;;6.85;96.14;100522.10;1770602;81;21268;-76
2021/01/06 11:40:05;;;;;;;23.32;14.20;;;;;;;6.95;95.79;100520.71;1770509;81;21315;-77
2021/01/06 11:43:21;;;;;;;29.55;15.20;;;;;;;7.01;95.35;100526.91;1770575;81;21267;-76
2021/01/06 11:46:48;;;;;;;29.67;15.50;;;;;;;7.06;95.04;100530.07;1743261;81;22156;-76
2021/01/06 11:50:10;;;;;;;29.10;15.63;;;;;;;7.11;94.59;100529.97;1769660;81;21169;-77
2021/01/06 11:53:27;;;;;;;26.05;14.40;;;;;;;7.13;94.18;100525.73;1771259;81;21193;-77
2021/01/06 11:56:41;;;;;;;21.25;13.03;;;;;;;7.12;93.69;100525.39;1771272;81;21265;-76
2021/01/06 11:59:50;;;;;;;25.97;11.73;;;;;;;7.11;93.38;100529.13;1770538;81;21717;-76
2021/01/06 12:03:09;;;;;;;19.17;10.57;;;;;;;7.12;93.06;100533.55;1771570;81;21756;-76
2021/01/06 12:06:31;;;;;;;19.15;10.55;;;;;;;7.08;92.63;100530.77;1768332;81;21311;-77
2021/01/06 12:10:18;;;;;;;18.48;10.20;;;;;;;7.03;92.30;100532.57;1769699;81;21771;-76
2021/01/06 12:13:33;;;;;;;18.05;9.83;;;;;;;7.04;92.14;100532.06;1771227;81;21161;-76
2021/01/06 12:17:00;;;;;;;16.90;10.15;;;;;;;7.09;91.93;100532.47;1744130;82;21320;-77
2021/01/06 12:20:15;;;;;;;16.00;9.63;;;;;;;7.13;91.74;100529.81;1743794;81;21792;-77
2021/01/06 12:23:27;;;;;;;16.90;9.63;;;;;;;7.18;91.46;100538.38;1739662;82;21256;-76
2021/01/06 12:26:49;;;;;;;16.48;10.38;;;;;;;7.21;90.93;100540.82;1741001;82;21728;-77
2021/01/06 12:29:59;;;;;;;12.75;8.30;;;;;;;7.24;90.59;100540.50;1740480;82;21436;-76
2021/01/06 12:33:20;;;;;;;;;;;;;;;7.29;89.87;100541.41;1742248;82;21181;-76
2021/01/06 12:36:30;;;;;;;12.50;7.90;;;;;;;7.27;89.24;100540.21;1739886;82;20309;-77
2021/01/06 12:40:01;;;;;;;15.32;8.73;;;;;;;7.24;88.80;100548.66;1739820;82;21403;-76
2021/01/06 12:43:08;;;;;;;11.35;7.70;;;;;;;7.24;88.55;100547.30;1739680;82;21196;-76
2021/01/06 12:46:27;;;;;;;15.53;9.88;;;;;;;7.23;88.24;100542.88;1741812;82;21846;-77
2021/01/06 12:49:53;;;;;;;15.85;9.50;;;;;;;7.23;88.09;100543.38;1742174;82;21268;-76
2021/01/06 12:53:34;;;;;;;14.20;9.65;;;;;;;7.22;87.78;100545.25;1733407;82;21173;-77
2021/01/06 12:56:55;;;;;;;19.32;9.00;;;;;;;7.20;87.63;100549.11;1655680;86;21809;-76
2021/01/06 13:00:06;;;;;;;15.70;10.35;;;;;;;7.17;87.57;100536.17;1741755;82;21304;-76
2021/01/06 13:03:35;;;;;;;21.33;12.55;;;;;;;7.15;87.59;100537.31;1742075;82;21693;-76
2021/01/06 13:07:03;;;;;;;17.35;10.78;;;;;;;7.17;87.62;100544.84;1742222;82;21165;-77
2021/01/06 13:10:25;;;;;;;19.23;11.08;;;;;;;7.16;87.67;100541.77;1742176;82;21264;-76
2021/01/06 13:13:44;;;;;;;18.62;11.70;;;;;;;7.16;87.80;100543.13;1739640;82;21316;-77
2021/01/06 13:17:01;;;;;;;14.45;9.83;;;;;;;7.18;87.73;100545.19;1734962;82;21328;-77
2021/01/06 13:20:19;;;;;;;19.52;9.65;;;;;;;7.22;87.70;100550.69;1729979;83;21305;-76
2021/01/06 13:23:41;;;;;;;21.90;12.30;;;;;;;7.25;87.62;100553.62;1729424;83;21308;-76
2021/01/06 13:27:11;;;;;;;18.52;11.70;;;;;;;7.25;87.49;100558.56;1738151;82;21224;-76
2021/01/06 13:30:51;;;;;;;16.10;9.63;;;;;;;7.23;87.43;100566.50;1734288;83;21304;-76
2021/01/06 13:34:19;;;;;;;18.52;10.05;;;;;;;7.20;87.36;100571.76;1729659;83;22188;-76
2021/01/06 13:37:31;;;;;;;10.80;8.33;;;;;;;7.14;87.32;100570.97;1751052;82;21271;-77
2021/01/06 13:40:38;;;;;;;12.55;8.33;;;;;;;7.14;87.43;100568.25;1729477;83;21293;-76
2021/01/06 13:44:25;;;;;;;14.53;7.58;;;;;;;7.14;87.34;100569.61;1751067;82;21327;-76
2021/01/06 13:47:33;;;;;;;14.25;8.10;;;;;;;7.15;87.30;100572.67;1729476;83;21265;-77
2021/01/06 13:51:11;;;;;;;13.53;8.13;;;;;;;7.15;87.22;100568.59;1712034;84;21280;-77
2021/01/06 13:54:46;;;;;;;13.05;7.95;;;;;;;7.14;87.16;100577.77;1711806;84;21269;-77
2021/01/06 13:58:03;;;;;;;13.43;8.23;;;;;;;7.11;86.98;100576.22;1711959;84;21189;-76
2021/01/06 14:01:46;;;;;;;11.70;7.47;;;;;;;7.08;86.98;100579.73;1711420;84;21316;-76
2021/01/06 14:04:57;;;;;;;;;;;;;;;7.09;87.11;100581.44;1713540;84;21360;-76
2021/01/06 14:08:23;;;;;;;14.30;8.65;;;;;;;7.09;87.04;100576.84;1711508;84;20449;-76
2021/01/06 14:11:53;;;;;;;14.85;9.15;;;;;;;7.06;87.07;100585.33;1710171;84;21364;-76
2021/01/06 14:15:32;;;;;;;14.60;8.18;;;;;;;7.03;87.04;100582.03;1711170;84;21308;-77
2021/01/06 14:18:43;;;;;;;18.02;10.65;;;;;;;6.99;87.09;100581.46;1710916;84;21197;-76
2021/01/06 14:21:58;;;;;;;15.60;10.55;;;;;;;6.94;87.24;100582.41;1711213;84;21240;-77
2021/01/06 14:25:03;;;;;;;40.20;23.30;;;;;;;6.95;87.43;100579.18;1711000;84;21311;-77
2021/01/06 14:28:22;;;;;;;53.68;28.30;;;;;;;6.99;87.48;100580.10;1711066;84;21307;-76
2021/01/06 14:31:41;;;;;;;31.40;18.02;;;;;;;6.98;87.37;100577.54;1710365;84;21379;-77
2021/01/06 14:34:47;;;;;;;19.40;12.23;;;;;;;6.95;87.40;100576.46;1710779;84;22636;-75
2021/01/06 14:38:22;;;;;;;15.65;10.10;;;;;;;6.92;87.45;100583.07;1711060;84;21934;-76
2021/01/06 14:41:36;;;;;;;17.98;11.12;;;;;;;6.95;87.55;100584.62;1710374;84;21302;-75
2021/01/06 14:45:00;;;;;;;24.52;11.63;;;;;;;6.92;87.46;100583.07;1711005;84;21305;-76
2021/01/06 14:48:34;;;;;;;25.65;13.98;;;;;;;6.91;87.55;100587.62;1709623;84;21352;-76
2021/01/06 14:52:26;;;;;;;26.73;16.15;;;;;;;6.86;87.58;100576.33;1749392;82;21181;-76
2021/01/06 14:55:45;;;;;;;22.45;16.17;;;;;;;6.79;87.60;100583.88;1734482;81;21300;-75
2021/01/06 14:59:10;;;;;;;;;;;;;;;6.71;87.76;100578.30;1752813;82;21299;-76
2021/01/06 15:02:44;;;;;;;26.07;16.30;;;;;;;6.72;88.08;100586.80;1759246;81;20310;-76